sensor_id;sensor_type;location;lat;lon;timestamp;P1;durP1;ratioP1;P2;durP2;ratioP2
36411;SDS011;22445;52.100;5.176;2023-06-04T00:01:04;1.92;;;1.13;;
36411;SDS011;22445;52.100;5.176;2023-06-04T00:03:30;1.65;;;1.05;;
36411;SDS011;22445;52.100;5.176;2023-06-04T00:05:55;2.22;;;1.15;;
36411;SDS011;22445;52.100;5.176;2023-06-04T00:08:21;2.13;;;1.20;;
36411;SDS011;22445;52.100;5.176;2023-06-04T00:10:47;2.53;;;1.30;;
36411;SDS011;22445;52.100;5.176;2023-06-04T00:13:12;3.08;;;1.27;;
36411;SDS011;22445;52.100;5.176;2023-06-04T00:15:38;2.60;;;1.35;;
36411;SDS011;22445;52.100;5.176;2023-06-04T00:18:04;3.00;;;1.10;;
36411;SDS011;22445;52.100;5.176;2023-06-04T00:20:29;2.17;;;1.13;;
36411;SDS011;22445;52.100;5.176;2023-06-04T00:22:55;1.98;;;1.30;;
36411;SDS011;22445;52.100;5.176;2023-06-04T00:25:21;1.05;;;0.93;;
36411;SDS011;22445;52.100;5.176;2023-06-04T00:27:46;2.45;;;1.40;;
36411;SDS011;22445;52.100;5.176;2023-06-04T00:30:12;2.80;;;1.40;;
36411;SDS011;22445;52.100;5.176;2023-06-04T00:32:38;3.85;;;1.70;;
36411;SDS011;22445;52.100;5.176;2023-06-04T00:35:04;2.95;;;1.40;;
36411;SDS011;22445;52.100;5.176;2023-06-04T00:37:30;1.75;;;1.50;;
36411;SDS011;22445;52.100;5.176;2023-06-04T00:39:56;5.22;;;1.63;;
36411;SDS011;22445;52.100;5.176;2023-06-04T00:42:22;2.78;;;1.60;;
36411;SDS011;22445;52.100;5.176;2023-06-04T00:44:47;3.03;;;1.17;;
36411;SDS011;22445;52.100;5.176;2023-06-04T00:47:13;5.30;;;1.02;;
36411;SDS011;22445;52.100;5.176;2023-06-04T00:49:40;1.88;;;1.50;;
36411;SDS011;22445;52.100;5.176;2023-06-04T00:52:09;1.60;;;1.10;;
36411;SDS011;22445;52.100;5.176;2023-06-04T00:54:35;2.17;;;1.52;;
36411;SDS011;22445;52.100;5.176;2023-06-04T00:57:02;1.77;;;1.25;;
36411;SDS011;22445;52.100;5.176;2023-06-04T00:59:29;1.85;;;1.08;;
36411;SDS011;22445;52.100;5.176;2023-06-04T01:02:11;2.00;;;1.20;;
36411;SDS011;22445;52.100;5.176;2023-06-04T01:07:35;3.00;;;1.40;;
36411;SDS011;22445;52.100;5.176;2023-06-04T01:10:02;2.72;;;1.10;;
36411;SDS011;22445;52.100;5.176;2023-06-04T01:12:28;1.58;;;1.30;;
36411;SDS011;22445;52.100;5.176;2023-06-04T01:14:54;1.85;;;1.05;;
36411;SDS011;22445;52.100;5.176;2023-06-04T01:25:54;2.25;;;1.33;;
36411;SDS011;22445;52.100;5.176;2023-06-04T01:28:22;2.60;;;1.50;;
36411;SDS011;22445;52.100;5.176;2023-06-04T01:30:48;2.22;;;1.38;;
36411;SDS011;22445;52.100;5.176;2023-06-04T01:33:16;2.75;;;1.23;;
36411;SDS011;22445;52.100;5.176;2023-06-04T01:35:43;2.92;;;0.98;;
36411;SDS011;22445;52.100;5.176;2023-06-04T01:38:09;4.60;;;1.80;;
36411;SDS011;22445;52.100;5.176;2023-06-04T01:40:35;1.90;;;1.20;;
36411;SDS011;22445;52.100;5.176;2023-06-04T01:43:01;2.85;;;1.50;;
36411;SDS011;22445;52.100;5.176;2023-06-04T01:45:27;4.07;;;1.50;;
36411;SDS011;22445;52.100;5.176;2023-06-04T01:47:53;3.13;;;1.48;;
36411;SDS011;22445;52.100;5.176;2023-06-04T01:50:19;5.93;;;1.58;;
36411;SDS011;22445;52.100;5.176;2023-06-04T01:52:45;2.08;;;1.17;;
36411;SDS011;22445;52.100;5.176;2023-06-04T01:55:12;1.50;;;1.10;;
36411;SDS011;22445;52.100;5.176;2023-06-04T01:57:39;1.40;;;1.20;;
36411;SDS011;22445;52.100;5.176;2023-06-04T02:00:06;3.30;;;1.80;;
36411;SDS011;22445;52.100;5.176;2023-06-04T02:02:35;2.58;;;1.15;;
36411;SDS011;22445;52.100;5.176;2023-06-04T02:05:01;2.55;;;1.40;;
36411;SDS011;22445;52.100;5.176;2023-06-04T02:07:27;6.38;;;1.10;;
36411;SDS011;22445;52.100;5.176;2023-06-04T02:09:52;1.63;;;0.90;;
36411;SDS011;22445;52.100;5.176;2023-06-04T02:12:18;5.63;;;1.35;;
36411;SDS011;22445;52.100;5.176;2023-06-04T02:14:44;1.40;;;1.10;;
36411;SDS011;22445;52.100;5.176;2023-06-04T02:17:12;1.70;;;1.10;;
36411;SDS011;22445;52.100;5.176;2023-06-04T02:19:42;2.38;;;1.30;;
36411;SDS011;22445;52.100;5.176;2023-06-04T02:22:18;3.95;;;1.35;;
36411;SDS011;22445;52.100;5.176;2023-06-04T02:24:44;1.38;;;1.10;;
36411;SDS011;22445;52.100;5.176;2023-06-04T02:27:10;1.63;;;1.10;;
36411;SDS011;22445;52.100;5.176;2023-06-04T02:29:36;2.05;;;1.15;;
36411;SDS011;22445;52.100;5.176;2023-06-04T02:32:03;2.15;;;1.10;;
36411;SDS011;22445;52.100;5.176;2023-06-04T02:34:29;2.42;;;0.90;;
36411;SDS011;22445;52.100;5.176;2023-06-04T02:36:55;3.88;;;1.13;;
36411;SDS011;22445;52.100;5.176;2023-06-04T02:39:21;2.45;;;1.10;;
36411;SDS011;22445;52.100;5.176;2023-06-04T02:41:47;2.88;;;1.40;;
36411;SDS011;22445;52.100;5.176;2023-06-04T02:44:12;2.63;;;1.00;;
36411;SDS011;22445;52.100;5.176;2023-06-04T02:46:38;2.50;;;1.33;;
36411;SDS011;22445;52.100;5.176;2023-06-04T02:49:04;2.40;;;1.02;;
36411;SDS011;22445;52.100;5.176;2023-06-04T02:51:30;2.75;;;1.30;;
36411;SDS011;22445;52.100;5.176;2023-06-04T02:53:57;2.92;;;0.98;;
36411;SDS011;22445;52.100;5.176;2023-06-04T02:56:23;2.42;;;1.25;;
36411;SDS011;22445;52.100;5.176;2023-06-04T02:58:52;2.40;;;1.33;;
36411;SDS011;22445;52.100;5.176;2023-06-04T03:01:20;2.72;;;1.10;;
36411;SDS011;22445;52.100;5.176;2023-06-04T03:03:46;2.45;;;1.30;;
36411;SDS011;22445;52.100;5.176;2023-06-04T03:06:12;3.55;;;1.27;;
36411;SDS011;22445;52.100;5.176;2023-06-04T03:08:41;1.73;;;1.30;;
36411;SDS011;22445;52.100;5.176;2023-06-04T03:11:07;2.55;;;1.20;;
36411;SDS011;22445;52.100;5.176;2023-06-04T03:13:33;2.58;;;1.15;;
36411;SDS011;22445;52.100;5.176;2023-06-04T03:15:59;1.00;;;0.88;;
36411;SDS011;22445;52.100;5.176;2023-06-04T03:18:30;1.83;;;1.17;;
36411;SDS011;22445;52.100;5.176;2023-06-04T03:20:56;2.10;;;1.67;;
36411;SDS011;22445;52.100;5.176;2023-06-04T03:23:21;2.05;;;1.20;;
36411;SDS011;22445;52.100;5.176;2023-06-04T03:25:47;2.58;;;1.55;;
36411;SDS011;22445;52.100;5.176;2023-06-04T03:28:13;2.58;;;1.40;;
36411;SDS011;22445;52.100;5.176;2023-06-04T03:30:39;2.83;;;1.30;;
36411;SDS011;22445;52.100;5.176;2023-06-04T03:33:05;5.15;;;1.52;;
36411;SDS011;22445;52.100;5.176;2023-06-04T03:35:32;6.07;;;1.38;;
36411;SDS011;22445;52.100;5.176;2023-06-04T03:37:58;4.53;;;1.92;;
36411;SDS011;22445;52.100;5.176;2023-06-04T03:40:23;1.80;;;1.30;;
36411;SDS011;22445;52.100;5.176;2023-06-04T03:42:49;5.78;;;1.42;;
36411;SDS011;22445;52.100;5.176;2023-06-04T03:45:15;3.15;;;1.65;;
36411;SDS011;22445;52.100;5.176;2023-06-04T03:47:40;1.88;;;1.20;;
36411;SDS011;22445;52.100;5.176;2023-06-04T03:50:06;2.25;;;1.40;;
36411;SDS011;22445;52.100;5.176;2023-06-04T03:52:32;2.30;;;1.42;;
36411;SDS011;22445;52.100;5.176;2023-06-04T03:54:58;3.50;;;1.40;;
36411;SDS011;22445;52.100;5.176;2023-06-04T03:57:23;2.00;;;1.30;;
36411;SDS011;22445;52.100;5.176;2023-06-04T03:59:49;1.63;;;1.17;;
36411;SDS011;22445;52.100;5.176;2023-06-04T04:02:15;3.20;;;1.42;;
36411;SDS011;22445;52.100;5.176;2023-06-04T04:04:43;3.33;;;1.45;;
36411;SDS011;22445;52.100;5.176;2023-06-04T04:07:09;4.53;;;1.38;;
36411;SDS011;22445;52.100;5.176;2023-06-04T04:09:35;2.83;;;1.40;;
36411;SDS011;22445;52.100;5.176;2023-06-04T04:12:01;2.83;;;1.60;;
36411;SDS011;22445;52.100;5.176;2023-06-04T04:14:27;3.33;;;1.70;;
36411;SDS011;22445;52.100;5.176;2023-06-04T04:16:53;2.03;;;1.35;;
36411;SDS011;22445;52.100;5.176;2023-06-04T04:19:18;4.28;;;2.00;;
36411;SDS011;22445;52.100;5.176;2023-06-04T04:21:45;6.22;;;1.60;;
36411;SDS011;22445;52.100;5.176;2023-06-04T04:24:28;4.00;;;1.50;;
36411;SDS011;22445;52.100;5.176;2023-06-04T04:26:57;8.43;;;2.33;;
36411;SDS011;22445;52.100;5.176;2023-06-04T04:29:23;3.97;;;1.83;;
36411;SDS011;22445;52.100;5.176;2023-06-04T04:31:50;2.65;;;1.80;;
36411;SDS011;22445;52.100;5.176;2023-06-04T04:34:16;3.60;;;1.60;;
36411;SDS011;22445;52.100;5.176;2023-06-04T04:36:42;3.47;;;1.95;;
36411;SDS011;22445;52.100;5.176;2023-06-04T04:39:09;2.88;;;1.48;;
36411;SDS011;22445;52.100;5.176;2023-06-04T04:41:36;3.17;;;1.77;;
36411;SDS011;22445;52.100;5.176;2023-06-04T04:44:03;2.85;;;1.88;;
36411;SDS011;22445;52.100;5.176;2023-06-04T04:46:30;3.53;;;2.50;;
36411;SDS011;22445;52.100;5.176;2023-06-04T04:48:56;4.57;;;2.10;;
36411;SDS011;22445;52.100;5.176;2023-06-04T04:51:21;2.55;;;2.10;;
36411;SDS011;22445;52.100;5.176;2023-06-04T04:53:47;4.50;;;1.85;;
36411;SDS011;22445;52.100;5.176;2023-06-04T04:56:13;3.38;;;2.08;;
36411;SDS011;22445;52.100;5.176;2023-06-04T04:58:39;2.63;;;1.67;;
36411;SDS011;22445;52.100;5.176;2023-06-04T05:01:04;3.55;;;1.70;;
36411;SDS011;22445;52.100;5.176;2023-06-04T05:03:30;5.80;;;1.77;;
36411;SDS011;22445;52.100;5.176;2023-06-04T05:05:55;3.45;;;1.88;;
36411;SDS011;22445;52.100;5.176;2023-06-04T05:08:21;4.32;;;1.52;;
36411;SDS011;22445;52.100;5.176;2023-06-04T05:10:46;5.07;;;1.60;;
36411;SDS011;22445;52.100;5.176;2023-06-04T05:13:12;5.25;;;1.83;;
36411;SDS011;22445;52.100;5.176;2023-06-04T05:15:37;3.58;;;1.98;;
36411;SDS011;22445;52.100;5.176;2023-06-04T05:18:04;3.40;;;1.85;;
36411;SDS011;22445;52.100;5.176;2023-06-04T05:20:30;3.78;;;1.92;;
36411;SDS011;22445;52.100;5.176;2023-06-04T05:22:56;5.40;;;1.95;;
36411;SDS011;22445;52.100;5.176;2023-06-04T05:25:21;4.18;;;1.70;;
36411;SDS011;22445;52.100;5.176;2023-06-04T05:27:47;4.60;;;1.67;;
36411;SDS011;22445;52.100;5.176;2023-06-04T05:30:14;3.35;;;1.75;;
36411;SDS011;22445;52.100;5.176;2023-06-04T05:32:40;4.28;;;1.85;;
36411;SDS011;22445;52.100;5.176;2023-06-04T05:35:06;5.72;;;1.85;;
36411;SDS011;22445;52.100;5.176;2023-06-04T05:37:33;2.90;;;1.75;;
36411;SDS011;22445;52.100;5.176;2023-06-04T05:39:59;3.80;;;1.60;;
36411;SDS011;22445;52.100;5.176;2023-06-04T05:42:25;4.85;;;1.90;;
36411;SDS011;22445;52.100;5.176;2023-06-04T05:44:50;5.28;;;1.77;;
36411;SDS011;22445;52.100;5.176;2023-06-04T05:47:16;3.45;;;1.42;;
36411;SDS011;22445;52.100;5.176;2023-06-04T05:49:43;5.07;;;3.10;;
36411;SDS011;22445;52.100;5.176;2023-06-04T05:52:09;4.38;;;2.10;;
36411;SDS011;22445;52.100;5.176;2023-06-04T05:54:34;4.47;;;1.70;;
36411;SDS011;22445;52.100;5.176;2023-06-04T05:57:02;3.65;;;1.70;;
36411;SDS011;22445;52.100;5.176;2023-06-04T05:59:28;4.10;;;1.80;;
36411;SDS011;22445;52.100;5.176;2023-06-04T06:01:54;5.32;;;1.85;;
36411;SDS011;22445;52.100;5.176;2023-06-04T06:04:20;3.03;;;1.40;;
36411;SDS011;22445;52.100;5.176;2023-06-04T06:06:45;5.82;;;1.85;;
36411;SDS011;22445;52.100;5.176;2023-06-04T06:09:13;6.05;;;1.83;;
36411;SDS011;22445;52.100;5.176;2023-06-04T06:11:40;3.70;;;1.60;;
36411;SDS011;22445;52.100;5.176;2023-06-04T06:14:06;4.88;;;1.65;;
36411;SDS011;22445;52.100;5.176;2023-06-04T06:16:31;4.22;;;1.70;;
36411;SDS011;22445;52.100;5.176;2023-06-04T06:19:00;5.28;;;1.88;;
36411;SDS011;22445;52.100;5.176;2023-06-04T06:21:26;3.60;;;1.65;;
36411;SDS011;22445;52.100;5.176;2023-06-04T06:23:53;4.75;;;1.50;;
36411;SDS011;22445;52.100;5.176;2023-06-04T06:26:19;4.10;;;1.70;;
36411;SDS011;22445;52.100;5.176;2023-06-04T06:28:44;2.80;;;1.40;;
36411;SDS011;22445;52.100;5.176;2023-06-04T06:31:10;4.85;;;1.67;;
36411;SDS011;22445;52.100;5.176;2023-06-04T06:33:36;3.45;;;1.67;;
36411;SDS011;22445;52.100;5.176;2023-06-04T06:36:07;3.90;;;1.63;;
36411;SDS011;22445;52.100;5.176;2023-06-04T06:38:37;3.53;;;2.00;;
36411;SDS011;22445;52.100;5.176;2023-06-04T06:41:02;6.00;;;1.48;;
36411;SDS011;22445;52.100;5.176;2023-06-04T06:43:28;5.30;;;1.80;;
36411;SDS011;22445;52.100;5.176;2023-06-04T06:45:53;3.33;;;1.45;;
36411;SDS011;22445;52.100;5.176;2023-06-04T06:48:19;3.75;;;1.58;;
36411;SDS011;22445;52.100;5.176;2023-06-04T06:50:45;4.18;;;1.30;;
36411;SDS011;22445;52.100;5.176;2023-06-04T06:53:10;5.72;;;1.63;;
36411;SDS011;22445;52.100;5.176;2023-06-04T06:55:36;5.32;;;1.65;;
36411;SDS011;22445;52.100;5.176;2023-06-04T06:58:01;2.75;;;1.13;;
36411;SDS011;22445;52.100;5.176;2023-06-04T07:00:27;4.45;;;1.60;;
36411;SDS011;22445;52.100;5.176;2023-06-04T07:02:53;4.65;;;1.95;;
36411;SDS011;22445;52.100;5.176;2023-06-04T07:05:19;4.45;;;1.30;;
36411;SDS011;22445;52.100;5.176;2023-06-04T07:07:44;5.97;;;1.58;;
36411;SDS011;22445;52.100;5.176;2023-06-04T07:10:11;3.47;;;1.50;;
36411;SDS011;22445;52.100;5.176;2023-06-04T07:12:38;4.20;;;1.42;;
36411;SDS011;22445;52.100;5.176;2023-06-04T07:15:05;5.18;;;1.52;;
36411;SDS011;22445;52.100;5.176;2023-06-04T07:17:31;3.95;;;1.35;;
36411;SDS011;22445;52.100;5.176;2023-06-04T07:19:57;3.38;;;1.30;;
36411;SDS011;22445;52.100;5.176;2023-06-04T07:22:22;2.35;;;1.10;;
36411;SDS011;22445;52.100;5.176;2023-06-04T07:24:48;3.78;;;1.25;;
36411;SDS011;22445;52.100;5.176;2023-06-04T07:27:14;2.33;;;1.30;;
36411;SDS011;22445;52.100;5.176;2023-06-04T07:29:42;2.92;;;1.10;;
36411;SDS011;22445;52.100;5.176;2023-06-04T07:32:08;2.90;;;1.33;;
36411;SDS011;22445;52.100;5.176;2023-06-04T07:34:34;2.95;;;1.58;;
36411;SDS011;22445;52.100;5.176;2023-06-04T07:37:02;3.63;;;1.33;;
36411;SDS011;22445;52.100;5.176;2023-06-04T07:39:28;7.80;;;1.70;;
36411;SDS011;22445;52.100;5.176;2023-06-04T07:41:53;2.67;;;1.05;;
36411;SDS011;22445;52.100;5.176;2023-06-04T07:44:19;2.30;;;1.00;;
36411;SDS011;22445;52.100;5.176;2023-06-04T07:46:45;4.68;;;1.10;;
36411;SDS011;22445;52.100;5.176;2023-06-04T07:49:10;2.17;;;1.02;;
36411;SDS011;22445;52.100;5.176;2023-06-04T07:51:36;2.60;;;1.00;;
36411;SDS011;22445;52.100;5.176;2023-06-04T07:54:02;5.25;;;1.27;;
36411;SDS011;22445;52.100;5.176;2023-06-04T07:56:28;4.43;;;1.42;;
36411;SDS011;22445;52.100;5.176;2023-06-04T07:58:53;4.47;;;1.48;;
36411;SDS011;22445;52.100;5.176;2023-06-04T08:01:19;4.07;;;1.15;;
36411;SDS011;22445;52.100;5.176;2023-06-04T08:03:45;2.78;;;1.00;;
36411;SDS011;22445;52.100;5.176;2023-06-04T08:06:11;4.30;;;1.20;;
36411;SDS011;22445;52.100;5.176;2023-06-04T08:08:43;3.90;;;0.98;;
36411;SDS011;22445;52.100;5.176;2023-06-04T08:11:13;1.90;;;0.95;;
36411;SDS011;22445;52.100;5.176;2023-06-04T08:13:39;3.20;;;0.88;;
36411;SDS011;22445;52.100;5.176;2023-06-04T08:16:05;2.00;;;0.80;;
36411;SDS011;22445;52.100;5.176;2023-06-04T08:18:31;4.30;;;1.15;;
36411;SDS011;22445;52.100;5.176;2023-06-04T08:20:56;1.90;;;0.98;;
36411;SDS011;22445;52.100;5.176;2023-06-04T08:23:22;2.88;;;1.17;;
36411;SDS011;22445;52.100;5.176;2023-06-04T08:25:48;2.70;;;1.00;;
36411;SDS011;22445;52.100;5.176;2023-06-04T08:28:13;1.80;;;0.98;;
36411;SDS011;22445;52.100;5.176;2023-06-04T08:30:41;4.85;;;1.30;;
36411;SDS011;22445;52.100;5.176;2023-06-04T08:33:07;1.60;;;0.90;;
36411;SDS011;22445;52.100;5.176;2023-06-04T08:35:33;1.48;;;0.88;;
36411;SDS011;22445;52.100;5.176;2023-06-04T08:37:58;2.65;;;0.95;;
36411;SDS011;22445;52.100;5.176;2023-06-04T08:40:24;2.22;;;0.88;;
36411;SDS011;22445;52.100;5.176;2023-06-04T08:42:50;1.73;;;0.70;;
36411;SDS011;22445;52.100;5.176;2023-06-04T08:45:17;2.75;;;1.08;;
36411;SDS011;22445;52.100;5.176;2023-06-04T08:47:49;2.03;;;1.10;;
36411;SDS011;22445;52.100;5.176;2023-06-04T08:50:19;4.55;;;0.90;;
36411;SDS011;22445;52.100;5.176;2023-06-04T08:52:46;2.97;;;0.93;;
36411;SDS011;22445;52.100;5.176;2023-06-04T08:55:12;2.30;;;0.88;;
36411;SDS011;22445;52.100;5.176;2023-06-04T08:57:41;2.00;;;0.75;;
36411;SDS011;22445;52.100;5.176;2023-06-04T09:00:07;1.95;;;0.63;;
36411;SDS011;22445;52.100;5.176;2023-06-04T09:02:35;2.33;;;1.00;;
36411;SDS011;22445;52.100;5.176;2023-06-04T09:05:05;3.85;;;1.08;;
36411;SDS011;22445;52.100;5.176;2023-06-04T09:07:38;3.13;;;1.02;;
36411;SDS011;22445;52.100;5.176;2023-06-04T09:10:06;1.58;;;0.80;;
36411;SDS011;22445;52.100;5.176;2023-06-04T09:12:33;1.80;;;0.88;;
36411;SDS011;22445;52.100;5.176;2023-06-04T09:15:01;4.05;;;1.00;;
36411;SDS011;22445;52.100;5.176;2023-06-04T09:17:27;1.67;;;0.77;;
36411;SDS011;22445;52.100;5.176;2023-06-04T09:19:53;2.22;;;0.73;;
36411;SDS011;22445;52.100;5.176;2023-06-04T09:22:19;2.67;;;0.70;;
36411;SDS011;22445;52.100;5.176;2023-06-04T09:24:48;2.90;;;0.77;;
36411;SDS011;22445;52.100;5.176;2023-06-04T09:27:18;1.92;;;0.80;;
36411;SDS011;22445;52.100;5.176;2023-06-04T09:32:36;1.90;;;0.85;;
36411;SDS011;22445;52.100;5.176;2023-06-04T09:35:08;2.17;;;1.00;;
36411;SDS011;22445;52.100;5.176;2023-06-04T09:37:55;2.35;;;0.93;;
36411;SDS011;22445;52.100;5.176;2023-06-04T09:40:21;1.55;;;0.77;;
36411;SDS011;22445;52.100;5.176;2023-06-04T09:42:48;1.45;;;0.70;;
36411;SDS011;22445;52.100;5.176;2023-06-04T09:45:31;1.67;;;0.70;;
36411;SDS011;22445;52.100;5.176;2023-06-04T09:48:01;9.15;;;0.70;;
36411;SDS011;22445;52.100;5.176;2023-06-04T09:50:29;1.83;;;0.70;;
36411;SDS011;22445;52.100;5.176;2023-06-04T09:52:56;2.50;;;0.90;;
36411;SDS011;22445;52.100;5.176;2023-06-04T09:55:22;2.70;;;0.60;;
36411;SDS011;22445;52.100;5.176;2023-06-04T09:57:48;1.67;;;0.63;;
36411;SDS011;22445;52.100;5.176;2023-06-04T10:00:21;1.85;;;0.65;;
36411;SDS011;22445;52.100;5.176;2023-06-04T10:02:48;1.70;;;0.70;;
36411;SDS011;22445;52.100;5.176;2023-06-04T10:05:14;1.27;;;0.50;;
36411;SDS011;22445;52.100;5.176;2023-06-04T10:07:44;1.67;;;0.70;;
36411;SDS011;22445;52.100;5.176;2023-06-04T10:10:11;2.47;;;0.60;;
36411;SDS011;22445;52.100;5.176;2023-06-04T10:12:41;2.85;;;0.80;;
36411;SDS011;22445;52.100;5.176;2023-06-04T10:15:10;2.00;;;0.50;;
36411;SDS011;22445;52.100;5.176;2023-06-04T10:17:36;2.08;;;0.98;;
36411;SDS011;22445;52.100;5.176;2023-06-04T10:20:03;2.25;;;0.95;;
36411;SDS011;22445;52.100;5.176;2023-06-04T10:22:31;1.17;;;0.77;;
36411;SDS011;22445;52.100;5.176;2023-06-04T10:24:57;1.80;;;0.65;;
36411;SDS011;22445;52.100;5.176;2023-06-04T10:27:23;0.90;;;0.40;;
36411;SDS011;22445;52.100;5.176;2023-06-04T10:29:50;1.45;;;0.60;;
36411;SDS011;22445;52.100;5.176;2023-06-04T10:32:17;1.33;;;0.70;;
36411;SDS011;22445;52.100;5.176;2023-06-04T10:34:43;2.42;;;0.60;;
36411;SDS011;22445;52.100;5.176;2023-06-04T10:37:21;1.02;;;0.55;;
36411;SDS011;22445;52.100;5.176;2023-06-04T10:40:06;0.77;;;0.63;;
36411;SDS011;22445;52.100;5.176;2023-06-04T10:42:39;2.47;;;0.90;;
36411;SDS011;22445;52.100;5.176;2023-06-04T10:45:06;1.52;;;0.73;;
36411;SDS011;22445;52.100;5.176;2023-06-04T10:47:33;1.92;;;0.90;;
36411;SDS011;22445;52.100;5.176;2023-06-04T10:50:11;2.78;;;0.77;;
36411;SDS011;22445;52.100;5.176;2023-06-04T10:52:38;0.95;;;0.70;;
36411;SDS011;22445;52.100;5.176;2023-06-04T10:55:15;1.05;;;0.80;;
36411;SDS011;22445;52.100;5.176;2023-06-04T10:57:50;1.20;;;0.52;;
36411;SDS011;22445;52.100;5.176;2023-06-04T11:00:19;0.70;;;0.52;;
36411;SDS011;22445;52.100;5.176;2023-06-04T11:02:54;2.20;;;0.95;;
36411;SDS011;22445;52.100;5.176;2023-06-04T11:05:33;1.85;;;0.75;;
36411;SDS011;22445;52.100;5.176;2023-06-04T11:08:09;3.97;;;1.02;;
36411;SDS011;22445;52.100;5.176;2023-06-04T11:10:37;3.25;;;1.15;;
36411;SDS011;22445;52.100;5.176;2023-06-04T11:13:04;1.90;;;0.95;;
36411;SDS011;22445;52.100;5.176;2023-06-04T11:15:40;1.40;;;0.77;;
36411;SDS011;22445;52.100;5.176;2023-06-04T11:18:13;3.75;;;0.82;;
36411;SDS011;22445;52.100;5.176;2023-06-04T11:20:40;1.65;;;0.70;;
36411;SDS011;22445;52.100;5.176;2023-06-04T11:23:07;3.13;;;0.77;;
36411;SDS011;22445;52.100;5.176;2023-06-04T11:25:33;1.92;;;0.85;;
36411;SDS011;22445;52.100;5.176;2023-06-04T11:27:59;1.88;;;0.73;;
36411;SDS011;22445;52.100;5.176;2023-06-04T11:30:26;0.80;;;0.60;;
36411;SDS011;22445;52.100;5.176;2023-06-04T11:35:40;2.88;;;0.90;;
36411;SDS011;22445;52.100;5.176;2023-06-04T11:38:07;4.28;;;0.93;;
36411;SDS011;22445;52.100;5.176;2023-06-04T11:40:32;3.65;;;0.75;;
36411;SDS011;22445;52.100;5.176;2023-06-04T11:42:58;1.73;;;0.90;;
36411;SDS011;22445;52.100;5.176;2023-06-04T11:45:24;1.48;;;0.60;;
36411;SDS011;22445;52.100;5.176;2023-06-04T11:47:54;2.03;;;0.98;;
36411;SDS011;22445;52.100;5.176;2023-06-04T11:50:26;2.13;;;0.80;;
36411;SDS011;22445;52.100;5.176;2023-06-04T11:52:53;2.53;;;0.90;;
36411;SDS011;22445;52.100;5.176;2023-06-04T11:55:19;1.35;;;0.70;;
36411;SDS011;22445;52.100;5.176;2023-06-04T11:57:48;2.08;;;1.13;;
36411;SDS011;22445;52.100;5.176;2023-06-04T12:00:15;2.88;;;1.40;;
36411;SDS011;22445;52.100;5.176;2023-06-04T12:02:52;3.63;;;1.08;;
36411;SDS011;22445;52.100;5.176;2023-06-04T12:05:19;4.53;;;0.85;;
36411;SDS011;22445;52.100;5.176;2023-06-04T12:07:49;2.88;;;0.80;;
36411;SDS011;22445;52.100;5.176;2023-06-04T12:10:16;2.17;;;0.93;;
36411;SDS011;22445;52.100;5.176;2023-06-04T12:12:44;2.55;;;0.80;;
36411;SDS011;22445;52.100;5.176;2023-06-04T12:15:10;2.65;;;0.85;;
36411;SDS011;22445;52.100;5.176;2023-06-04T12:17:48;2.22;;;1.17;;
36411;SDS011;22445;52.100;5.176;2023-06-04T12:20:18;2.42;;;0.93;;
36411;SDS011;22445;52.100;5.176;2023-06-04T12:22:57;2.38;;;1.02;;
36411;SDS011;22445;52.100;5.176;2023-06-04T12:25:27;3.40;;;1.05;;
36411;SDS011;22445;52.100;5.176;2023-06-04T12:27:53;1.70;;;0.73;;
36411;SDS011;22445;52.100;5.176;2023-06-04T12:30:19;1.50;;;0.85;;
36411;SDS011;22445;52.100;5.176;2023-06-04T12:32:45;2.17;;;0.80;;
36411;SDS011;22445;52.100;5.176;2023-06-04T12:35:11;5.00;;;1.25;;
36411;SDS011;22445;52.100;5.176;2023-06-04T12:37:36;1.40;;;0.80;;
36411;SDS011;22445;52.100;5.176;2023-06-04T12:40:02;3.25;;;1.15;;
36411;SDS011;22445;52.100;5.176;2023-06-04T12:42:29;2.55;;;1.15;;
36411;SDS011;22445;52.100;5.176;2023-06-04T12:44:55;2.13;;;1.05;;
36411;SDS011;22445;52.100;5.176;2023-06-04T12:47:20;2.90;;;1.15;;
36411;SDS011;22445;52.100;5.176;2023-06-04T12:49:46;4.30;;;0.98;;
36411;SDS011;22445;52.100;5.176;2023-06-04T12:52:12;2.10;;;1.17;;
36411;SDS011;22445;52.100;5.176;2023-06-04T12:54:39;2.08;;;1.00;;
36411;SDS011;22445;52.100;5.176;2023-06-04T12:57:05;4.53;;;1.58;;
36411;SDS011;22445;52.100;5.176;2023-06-04T12:59:30;2.42;;;1.27;;
36411;SDS011;22445;52.100;5.176;2023-06-04T13:01:56;2.25;;;1.00;;
36411;SDS011;22445;52.100;5.176;2023-06-04T13:04:22;2.03;;;0.93;;
36411;SDS011;22445;52.100;5.176;2023-06-04T13:06:48;1.20;;;0.80;;
36411;SDS011;22445;52.100;5.176;2023-06-04T13:09:14;2.58;;;0.98;;
36411;SDS011;22445;52.100;5.176;2023-06-04T13:11:41;1.63;;;0.95;;
36411;SDS011;22445;52.100;5.176;2023-06-04T13:14:08;3.28;;;1.00;;
36411;SDS011;22445;52.100;5.176;2023-06-04T13:16:34;2.83;;;1.25;;
36411;SDS011;22445;52.100;5.176;2023-06-04T13:19:01;1.55;;;0.90;;
36411;SDS011;22445;52.100;5.176;2023-06-04T13:21:27;2.30;;;1.17;;
36411;SDS011;22445;52.100;5.176;2023-06-04T13:23:52;1.60;;;0.77;;
36411;SDS011;22445;52.100;5.176;2023-06-04T13:26:19;2.10;;;0.98;;
36411;SDS011;22445;52.100;5.176;2023-06-04T13:28:45;1.95;;;0.90;;
36411;SDS011;22445;52.100;5.176;2023-06-04T13:31:10;2.22;;;1.05;;
36411;SDS011;22445;52.100;5.176;2023-06-04T13:33:36;1.05;;;0.80;;
36411;SDS011;22445;52.100;5.176;2023-06-04T13:36:02;3.63;;;1.13;;
36411;SDS011;22445;52.100;5.176;2023-06-04T13:38:28;2.85;;;1.10;;
36411;SDS011;22445;52.100;5.176;2023-06-04T13:40:54;1.80;;;1.00;;
36411;SDS011;22445;52.100;5.176;2023-06-04T13:43:20;2.80;;;1.10;;
36411;SDS011;22445;52.100;5.176;2023-06-04T13:45:45;3.13;;;1.20;;
36411;SDS011;22445;52.100;5.176;2023-06-04T13:48:11;2.33;;;0.90;;
36411;SDS011;22445;52.100;5.176;2023-06-04T13:50:37;2.08;;;0.70;;
36411;SDS011;22445;52.100;5.176;2023-06-04T13:53:03;2.67;;;1.17;;
36411;SDS011;22445;52.100;5.176;2023-06-04T13:55:29;2.00;;;1.05;;
36411;SDS011;22445;52.100;5.176;2023-06-04T13:57:54;1.42;;;0.65;;
36411;SDS011;22445;52.100;5.176;2023-06-04T14:00:20;0.93;;;0.75;;
36411;SDS011;22445;52.100;5.176;2023-06-04T14:02:49;2.15;;;1.00;;
36411;SDS011;22445;52.100;5.176;2023-06-04T14:05:15;2.47;;;1.13;;
36411;SDS011;22445;52.100;5.176;2023-06-04T14:07:42;2.53;;;1.00;;
36411;SDS011;22445;52.100;5.176;2023-06-04T14:10:08;1.42;;;0.77;;
36411;SDS011;22445;52.100;5.176;2023-06-04T14:12:35;3.78;;;1.10;;
36411;SDS011;22445;52.100;5.176;2023-06-04T14:15:02;2.30;;;0.93;;
36411;SDS011;22445;52.100;5.176;2023-06-04T14:17:27;2.35;;;1.15;;
36411;SDS011;22445;52.100;5.176;2023-06-04T14:19:53;1.40;;;0.75;;
36411;SDS011;22445;52.100;5.176;2023-06-04T14:22:19;1.65;;;0.70;;
36411;SDS011;22445;52.100;5.176;2023-06-04T14:24:44;2.15;;;0.95;;
36411;SDS011;22445;52.100;5.176;2023-06-04T14:27:10;3.60;;;0.95;;
36411;SDS011;22445;52.100;5.176;2023-06-04T14:29:36;1.42;;;0.98;;
36411;SDS011;22445;52.100;5.176;2023-06-04T14:32:02;2.78;;;0.95;;
36411;SDS011;22445;52.100;5.176;2023-06-04T14:34:29;2.55;;;1.13;;
36411;SDS011;22445;52.100;5.176;2023-06-04T14:36:57;3.17;;;1.00;;
36411;SDS011;22445;52.100;5.176;2023-06-04T14:39:25;1.33;;;0.77;;
36411;SDS011;22445;52.100;5.176;2023-06-04T14:41:53;3.97;;;1.17;;
36411;SDS011;22445;52.100;5.176;2023-06-04T14:44:19;3.22;;;0.90;;
36411;SDS011;22445;52.100;5.176;2023-06-04T14:46:45;2.55;;;1.10;;
36411;SDS011;22445;52.100;5.176;2023-06-04T14:49:11;2.08;;;1.20;;
36411;SDS011;22445;52.100;5.176;2023-06-04T14:51:37;1.88;;;0.80;;
36411;SDS011;22445;52.100;5.176;2023-06-04T14:54:03;2.33;;;1.10;;
36411;SDS011;22445;52.100;5.176;2023-06-04T14:56:29;3.22;;;1.13;;
36411;SDS011;22445;52.100;5.176;2023-06-04T14:58:55;3.35;;;1.00;;
36411;SDS011;22445;52.100;5.176;2023-06-04T15:01:21;2.95;;;1.10;;
36411;SDS011;22445;52.100;5.176;2023-06-04T15:03:50;4.47;;;0.90;;